sensor_id;sensor_type;location;lat;lon;timestamp;temperature;humidity
8882;DHT22;4477;48.736;9.176;2022-12-07T03:31:19;5.00;99.90
8882;DHT22;4477;48.736;9.176;2022-12-07T03:33:54;1.40;99.90
8882;DHT22;4477;48.736;9.176;2022-12-07T03:36:27;1.30;99.90
8882;DHT22;4477;48.736;9.176;2022-12-07T03:39:02;1.30;99.90
8882;DHT22;4477;48.736;9.176;2022-12-07T03:41:33;1.40;99.90
8882;DHT22;4477;48.736;9.176;2022-12-07T03:44:02;1.40;99.90
8882;DHT22;4477;48.736;9.176;2022-12-07T03:46:36;1.40;99.90
8882;DHT22;4477;48.736;9.176;2022-12-07T03:49:08;1.40;99.90
8882;DHT22;4477;48.736;9.176;2022-12-07T03:51:43;1.40;99.90
8882;DHT22;4477;48.736;9.176;2022-12-07T03:54:15;1.40;99.90
8882;DHT22;4477;48.736;9.176;2022-12-07T04:04:32;1.30;99.90
8882;DHT22;4477;48.736;9.176;2022-12-07T04:06:59;1.30;99.90
8882;DHT22;4477;48.736;9.176;2022-12-07T04:09:26;1.20;99.90
8882;DHT22;4477;48.736;9.176;2022-12-07T04:11:53;1.30;99.90
8882;DHT22;4477;48.736;9.176;2022-12-07T04:14:20;1.30;99.90
8882;DHT22;4477;48.736;9.176;2022-12-07T04:16:47;1.30;99.90
8882;DHT22;4477;48.736;9.176;2022-12-07T04:19:16;1.30;99.90
8882;DHT22;4477;48.736;9.176;2022-12-07T04:21:45;1.20;99.90
8882;DHT22;4477;48.736;9.176;2022-12-07T04:24:13;1.20;99.90
8882;DHT22;4477;48.736;9.176;2022-12-07T04:26:40;1.20;99.90
8882;DHT22;4477;48.736;9.176;2022-12-07T04:29:08;1.10;99.90
8882;DHT22;4477;48.736;9.176;2022-12-07T04:31:35;1.10;99.90
8882;DHT22;4477;48.736;9.176;2022-12-07T04:34:03;1.10;99.90
8882;DHT22;4477;48.736;9.176;2022-12-07T04:36:30;1.10;99.90
8882;DHT22;4477;48.736;9.176;2022-12-07T04:38:59;1.20;99.90
8882;DHT22;4477;48.736;9.176;2022-12-07T04:41:26;1.10;99.90
8882;DHT22;4477;48.736;9.176;2022-12-07T04:43:54;1.00;99.90
8882;DHT22;4477;48.736;9.176;2022-12-07T04:46:22;1.10;99.90
8882;DHT22;4477;48.736;9.176;2022-12-07T04:48:50;1.00;99.90
8882;DHT22;4477;48.736;9.176;2022-12-07T04:51:19;1.10;99.90
8882;DHT22;4477;48.736;9.176;2022-12-07T04:53:47;1.20;99.90
8882;DHT22;4477;48.736;9.176;2022-12-07T04:56:16;1.20;99.90
8882;DHT22;4477;48.736;9.176;2022-12-07T04:58:44;1.30;99.90
8882;DHT22;4477;48.736;9.176;2022-12-07T05:01:11;1.30;99.90
8882;DHT22;4477;48.736;9.176;2022-12-07T05:03:39;1.30;99.90
8882;DHT22;4477;48.736;9.176;2022-12-07T05:06:06;1.20;99.90
8882;DHT22;4477;48.736;9.176;2022-12-07T05:08:34;1.20;99.90
8882;DHT22;4477;48.736;9.176;2022-12-07T05:11:01;1.10;99.90
8882;DHT22;4477;48.736;9.176;2022-12-07T05:13:29;1.20;99.90
8882;DHT22;4477;48.736;9.176;2022-12-07T05:15:56;1.30;99.90
8882;DHT22;4477;48.736;9.176;2022-12-07T05:18:23;1.40;99.90
8882;DHT22;4477;48.736;9.176;2022-12-07T05:20:50;1.50;99.90
8882;DHT22;4477;48.736;9.176;2022-12-07T05:23:18;1.50;99.90
8882;DHT22;4477;48.736;9.176;2022-12-07T05:25:45;1.40;99.90
8882;DHT22;4477;48.736;9.176;2022-12-07T05:28:12;1.30;99.90
8882;DHT22;4477;48.736;9.176;2022-12-07T05:30:40;1.10;99.90
8882;DHT22;4477;48.736;9.176;2022-12-07T05:33:08;0.90;99.90
8882;DHT22;4477;48.736;9.176;2022-12-07T05:35:34;0.60;99.90
8882;DHT22;4477;48.736;9.176;2022-12-07T05:38:03;0.30;99.90
8882;DHT22;4477;48.736;9.176;2022-12-07T05:40:30;0.20;99.90
8882;DHT22;4477;48.736;9.176;2022-12-07T05:42:56;0.00;99.90
8882;DHT22;4477;48.736;9.176;2022-12-07T05:45:22;-0.40;99.90
8882;DHT22;4477;48.736;9.176;2022-12-07T05:47:50;-0.50;99.90
8882;DHT22;4477;48.736;9.176;2022-12-07T05:50:17;-0.90;99.90
8882;DHT22;4477;48.736;9.176;2022-12-07T05:52:44;-1.00;99.90
8882;DHT22;4477;48.736;9.176;2022-12-07T05:55:11;-0.90;99.90
8882;DHT22;4477;48.736;9.176;2022-12-07T05:57:38;-1.00;99.90
8882;DHT22;4477;48.736;9.176;2022-12-07T06:00:05;-0.70;99.90
8882;DHT22;4477;48.736;9.176;2022-12-07T06:02:31;-0.70;99.90
8882;DHT22;4477;48.736;9.176;2022-12-07T06:04:59;-0.80;99.90
8882;DHT22;4477;48.736;9.176;2022-12-07T06:07:26;-0.90;99.90
8882;DHT22;4477;48.736;9.176;2022-12-07T06:09:53;-0.90;99.90
8882;DHT22;4477;48.736;9.176;2022-12-07T06:12:20;-0.80;99.90
8882;DHT22;4477;48.736;9.176;2022-12-07T06:15:01;-0.80;99.90
8882;DHT22;4477;48.736;9.176;2022-12-07T06:17:27;-0.70;99.90
8882;DHT22;4477;48.736;9.176;2022-12-07T06:19:54;-0.50;99.90
8882;DHT22;4477;48.736;9.176;2022-12-07T06:22:22;-0.50;99.90
8882;DHT22;4477;48.736;9.176;2022-12-07T06:24:49;-0.50;99.90
8882;DHT22;4477;48.736;9.176;2022-12-07T06:27:16;-0.40;99.90
8882;DHT22;4477;48.736;9.176;2022-12-07T06:29:43;-0.40;99.90
8882;DHT22;4477;48.736;9.176;2022-12-07T06:32:10;-0.40;99.90
8882;DHT22;4477;48.736;9.176;2022-12-07T06:34:37;-0.20;99.90
8882;DHT22;4477;48.736;9.176;2022-12-07T06:37:04;-0.10;99.90
8882;DHT22;4477;48.736;9.176;2022-12-07T06:39:32;0.00;99.90
8882;DHT22;4477;48.736;9.176;2022-12-07T06:41:59;0.20;99.90
8882;DHT22;4477;48.736;9.176;2022-12-07T06:44:26;0.30;99.90
8882;DHT22;4477;48.736;9.176;2022-12-07T06:46:53;0.40;99.90
8882;DHT22;4477;48.736;9.176;2022-12-07T06:49:20;0.50;99.90
8882;DHT22;4477;48.736;9.176;2022-12-07T06:51:47;0.60;99.90
8882;DHT22;4477;48.736;9.176;2022-12-07T06:54:16;0.70;99.90
8882;DHT22;4477;48.736;9.176;2022-12-07T06:56:45;0.70;99.90
8882;DHT22;4477;48.736;9.176;2022-12-07T06:59:12;0.60;99.90
8882;DHT22;4477;48.736;9.176;2022-12-07T07:01:39;0.60;99.90
8882;DHT22;4477;48.736;9.176;2022-12-07T07:04:05;0.50;99.90
8882;DHT22;4477;48.736;9.176;2022-12-07T07:06:32;0.50;99.90
8882;DHT22;4477;48.736;9.176;2022-12-07T07:08:59;0.60;99.90
8882;DHT22;4477;48.736;9.176;2022-12-07T07:11:26;0.60;99.90
8882;DHT22;4477;48.736;9.176;2022-12-07T07:13:54;0.50;99.90
8882;DHT22;4477;48.736;9.176;2022-12-07T07:16:23;0.50;99.90
8882;DHT22;4477;48.736;9.176;2022-12-07T07:18:50;0.50;99.90
8882;DHT22;4477;48.736;9.176;2022-12-07T07:21:17;0.50;99.90
8882;DHT22;4477;48.736;9.176;2022-12-07T07:23:44;0.60;99.90
8882;DHT22;4477;48.736;9.176;2022-12-07T07:26:10;0.60;99.90
8882;DHT22;4477;48.736;9.176;2022-12-07T07:28:38;0.60;99.90
8882;DHT22;4477;48.736;9.176;2022-12-07T07:31:06;0.70;99.90
8882;DHT22;4477;48.736;9.176;2022-12-07T07:33:33;0.70;99.90
8882;DHT22;4477;48.736;9.176;2022-12-07T07:35:59;0.70;99.90
8882;DHT22;4477;48.736;9.176;2022-12-07T07:38:26;0.80;99.90
8882;DHT22;4477;48.736;9.176;2022-12-07T07:40:53;0.90;99.90
8882;DHT22;4477;48.736;9.176;2022-12-07T07:43:20;0.90;99.90
8882;DHT22;4477;48.736;9.176;2022-12-07T07:45:47;1.10;99.90
8882;DHT22;4477;48.736;9.176;2022-12-07T07:48:15;1.10;99.90
8882;DHT22;4477;48.736;9.176;2022-12-07T07:50:42;1.20;99.90
8882;DHT22;4477;48.736;9.176;2022-12-07T07:53:09;1.20;99.90
8882;DHT22;4477;48.736;9.176;2022-12-07T07:55:35;1.20;99.90
8882;DHT22;4477;48.736;9.176;2022-12-07T07:58:02;1.20;99.90
8882;DHT22;4477;48.736;9.176;2022-12-07T08:00:29;1.30;99.90
8882;DHT22;4477;48.736;9.176;2022-12-07T08:02:56;1.40;99.90
8882;DHT22;4477;48.736;9.176;2022-12-07T08:05:24;1.40;99.90
8882;DHT22;4477;48.736;9.176;2022-12-07T08:07:51;1.50;99.90
8882;DHT22;4477;48.736;9.176;2022-12-07T08:10:18;1.50;99.90
8882;DHT22;4477;48.736;9.176;2022-12-07T08:12:45;1.50;99.90
8882;DHT22;4477;48.736;9.176;2022-12-07T08:15:30;1.60;99.90
8882;DHT22;4477;48.736;9.176;2022-12-07T08:17:57;1.70;99.90
8882;DHT22;4477;48.736;9.176;2022-12-07T08:20:25;1.90;99.90
8882;DHT22;4477;48.736;9.176;2022-12-07T08:22:52;1.80;99.90
8882;DHT22;4477;48.736;9.176;2022-12-07T08:25:19;1.90;99.90
8882;DHT22;4477;48.736;9.176;2022-12-07T08:27:47;2.00;99.90
8882;DHT22;4477;48.736;9.176;2022-12-07T08:30:14;2.00;99.90
8882;DHT22;4477;48.736;9.176;2022-12-07T08:32:41;2.10;99.90
8882;DHT22;4477;48.736;9.176;2022-12-07T08:35:09;2.00;99.90
8882;DHT22;4477;48.736;9.176;2022-12-07T08:37:37;2.10;99.90
8882;DHT22;4477;48.736;9.176;2022-12-07T08:40:05;2.20;99.90
8882;DHT22;4477;48.736;9.176;2022-12-07T08:42:32;2.20;99.90
8882;DHT22;4477;48.736;9.176;2022-12-07T08:45:06;2.30;99.90
8882;DHT22;4477;48.736;9.176;2022-12-07T08:47:34;2.30;99.90
8882;DHT22;4477;48.736;9.176;2022-12-07T08:50:02;2.40;99.90
8882;DHT22;4477;48.736;9.176;2022-12-07T08:52:30;2.50;99.90
8882;DHT22;4477;48.736;9.176;2022-12-07T08:54:59;2.60;99.90
8882;DHT22;4477;48.736;9.176;2022-12-07T08:57:28;2.60;99.90
8882;DHT22;4477;48.736;9.176;2022-12-07T08:59:55;2.80;99.90
8882;DHT22;4477;48.736;9.176;2022-12-07T09:02:22;2.80;99.90
8882;DHT22;4477;48.736;9.176;2022-12-07T09:04:49;2.90;99.90
8882;DHT22;4477;48.736;9.176;2022-12-07T09:07:16;3.10;99.90
8882;DHT22;4477;48.736;9.176;2022-12-07T09:09:43;3.10;99.90
8882;DHT22;4477;48.736;9.176;2022-12-07T09:12:12;3.20;99.90
8882;DHT22;4477;48.736;9.176;2022-12-07T09:14:38;3.20;99.90
8882;DHT22;4477;48.736;9.176;2022-12-07T09:17:06;3.10;99.90
8882;DHT22;4477;48.736;9.176;2022-12-07T09:19:33;3.20;99.90
8882;DHT22;4477;48.736;9.176;2022-12-07T09:22:00;3.20;99.90
8882;DHT22;4477;48.736;9.176;2022-12-07T09:24:27;3.20;99.90
8882;DHT22;4477;48.736;9.176;2022-12-07T09:26:54;3.40;99.90
8882;DHT22;4477;48.736;9.176;2022-12-07T09:29:22;3.40;99.90
8882;DHT22;4477;48.736;9.176;2022-12-07T09:31:50;3.40;99.90
8882;DHT22;4477;48.736;9.176;2022-12-07T09:34:17;3.30;99.90
8882;DHT22;4477;48.736;9.176;2022-12-07T09:36:44;3.30;99.90
8882;DHT22;4477;48.736;9.176;2022-12-07T09:39:11;3.40;99.90
8882;DHT22;4477;48.736;9.176;2022-12-07T09:41:39;3.50;99.90
8882;DHT22;4477;48.736;9.176;2022-12-07T09:44:10;3.60;99.90
8882;DHT22;4477;48.736;9.176;2022-12-07T09:46:41;3.80;99.90
8882;DHT22;4477;48.736;9.176;2022-12-07T09:49:12;3.60;99.90
8882;DHT22;4477;48.736;9.176;2022-12-07T09:51:41;3.90;99.90
8882;DHT22;4477;48.736;9.176;2022-12-07T09:54:09;4.00;99.90
8882;DHT22;4477;48.736;9.176;2022-12-07T09:56:39;4.30;99.90
8882;DHT22;4477;48.736;9.176;2022-12-07T09:59:06;4.30;99.90
8882;DHT22;4477;48.736;9.176;2022-12-07T10:01:33;4.10;99.90
8882;DHT22;4477;48.736;9.176;2022-12-07T10:04:09;4.20;99.90
8882;DHT22;4477;48.736;9.176;2022-12-07T10:06:38;4.10;99.90
8882;DHT22;4477;48.736;9.176;2022-12-07T10:09:09;4.20;99.90
8882;DHT22;4477;48.736;9.176;2022-12-07T10:11:57;4.30;99.90
8882;DHT22;4477;48.736;9.176;2022-12-07T10:14:27;4.30;99.70
8882;DHT22;4477;48.736;9.176;2022-12-07T10:16:54;4.10;99.90
8882;DHT22;4477;48.736;9.176;2022-12-07T10:19:26;4.10;99.90
8882;DHT22;4477;48.736;9.176;2022-12-07T10:22:02;4.50;99.90
8882;DHT22;4477;48.736;9.176;2022-12-07T10:24:30;4.30;99.90
8882;DHT22;4477;48.736;9.176;2022-12-07T10:26:57;4.20;99.90
8882;DHT22;4477;48.736;9.176;2022-12-07T10:29:29;4.30;99.90
8882;DHT22;4477;48.736;9.176;2022-12-07T10:31:58;4.50;99.90
8882;DHT22;4477;48.736;9.176;2022-12-07T10:34:29;4.70;99.90
8882;DHT22;4477;48.736;9.176;2022-12-07T10:37:14;4.60;99.90
8882;DHT22;4477;48.736;9.176;2022-12-07T10:39:42;4.60;99.90
8882;DHT22;4477;48.736;9.176;2022-12-07T10:42:17;4.90;99.90
8882;DHT22;4477;48.736;9.176;2022-12-07T10:44:45;4.80;99.40
8882;DHT22;4477;48.736;9.176;2022-12-07T10:47:31;4.50;99.90
8882;DHT22;4477;48.736;9.176;2022-12-07T10:50:24;4.40;99.90
8882;DHT22;4477;48.736;9.176;2022-12-07T10:53:20;4.20;99.90
8882;DHT22;4477;48.736;9.176;2022-12-07T10:56:13;4.20;99.90
8882;DHT22;4477;48.736;9.176;2022-12-07T10:58:56;4.20;99.90
8882;DHT22;4477;48.736;9.176;2022-12-07T11:01:31;4.00;99.90
8882;DHT22;4477;48.736;9.176;2022-12-07T11:04:22;3.90;99.90
8882;DHT22;4477;48.736;9.176;2022-12-07T11:06:57;4.00;99.90
8882;DHT22;4477;48.736;9.176;2022-12-07T11:09:45;4.00;99.90
8882;DHT22;4477;48.736;9.176;2022-12-07T11:12:28;4.20;99.90
8882;DHT22;4477;48.736;9.176;2022-12-07T11:15:01;4.10;99.90
8882;DHT22;4477;48.736;9.176;2022-12-07T11:17:40;4.10;99.90
8882;DHT22;4477;48.736;9.176;2022-12-07T11:20:20;4.20;99.90
8882;DHT22;4477;48.736;9.176;2022-12-07T11:22:55;4.40;99.90
8882;DHT22;4477;48.736;9.176;2022-12-07T11:25:32;4.50;99.90
8882;DHT22;4477;48.736;9.176;2022-12-07T11:28:11;4.70;99.90
8882;DHT22;4477;48.736;9.176;2022-12-07T11:30:50;4.60;99.10
8882;DHT22;4477;48.736;9.176;2022-12-07T11:33:20;4.60;99.50
8882;DHT22;4477;48.736;9.176;2022-12-07T11:36:00;4.70;99.80
8882;DHT22;4477;48.736;9.176;2022-12-07T11:38:37;4.60;99.90
8882;DHT22;4477;48.736;9.176;2022-12-07T11:41:06;4.90;99.50
8882;DHT22;4477;48.736;9.176;2022-12-07T11:43:50;4.60;99.90
8882;DHT22;4477;48.736;9.176;2022-12-07T11:46:19;4.50;99.90
8882;DHT22;4477;48.736;9.176;2022-12-07T11:48:54;4.60;99.90
8882;DHT22;4477;48.736;9.176;2022-12-07T11:51:22;4.50;99.90
8882;DHT22;4477;48.736;9.176;2022-12-07T11:53:55;4.50;99.90
8882;DHT22;4477;48.736;9.176;2022-12-07T11:56:26;4.50;99.90
8882;DHT22;4477;48.736;9.176;2022-12-07T11:58:56;4.40;99.90
8882;DHT22;4477;48.736;9.176;2022-12-07T12:01:41;4.30;99.90
8882;DHT22;4477;48.736;9.176;2022-12-07T12:04:22;4.10;99.90
8882;DHT22;4477;48.736;9.176;2022-12-07T12:06:50;4.10;99.90
8882;DHT22;4477;48.736;9.176;2022-12-07T12:09:25;4.20;99.90
8882;DHT22;4477;48.736;9.176;2022-12-07T12:12:17;4.30;99.90
8882;DHT22;4477;48.736;9.176;2022-12-07T12:14:57;4.40;99.90
8882;DHT22;4477;48.736;9.176;2022-12-07T12:20:22;4.40;99.90
8882;DHT22;4477;48.736;9.176;2022-12-07T12:22:54;4.20;99.90
8882;DHT22;4477;48.736;9.176;2022-12-07T12:25:27;4.30;99.90
8882;DHT22;4477;48.736;9.176;2022-12-07T12:27:57;4.40;99.90
8882;DHT22;4477;48.736;9.176;2022-12-07T12:30:32;4.40;99.90
8882;DHT22;4477;48.736;9.176;2022-12-07T12:33:12;4.30;99.90
8882;DHT22;4477;48.736;9.176;2022-12-07T12:35:40;4.30;99.90
8882;DHT22;4477;48.736;9.176;2022-12-07T12:38:29;4.30;99.90
8882;DHT22;4477;48.736;9.176;2022-12-07T12:40:58;4.20;99.90
8882;DHT22;4477;48.736;9.176;2022-12-07T12:43:45;4.10;99.90
8882;DHT22;4477;48.736;9.176;2022-12-07T12:46:51;4.10;99.90
8882;DHT22;4477;48.736;9.176;2022-12-07T12:49:42;4.20;99.90
8882;DHT22;4477;48.736;9.176;2022-12-07T12:55:17;4.00;99.90
8882;DHT22;4477;48.736;9.176;2022-12-07T13:04:24;3.90;99.90
8882;DHT22;4477;48.736;9.176;2022-12-07T13:06:52;3.90;99.90
8882;DHT22;4477;48.736;9.176;2022-12-07T13:09:23;3.80;99.90
8882;DHT22;4477;48.736;9.176;2022-12-07T13:11:56;3.60;99.90
8882;DHT22;4477;48.736;9.176;2022-12-07T13:14:56;3.60;99.90
8882;DHT22;4477;48.736;9.176;2022-12-07T13:17:58;3.70;99.90
8882;DHT22;4477;48.736;9.176;2022-12-07T13:20:49;3.60;99.90
8882;DHT22;4477;48.736;9.176;2022-12-07T13:23:22;3.60;99.90
8882;DHT22;4477;48.736;9.176;2022-12-07T13:26:14;3.60;99.90
8882;DHT22;4477;48.736;9.176;2022-12-07T13:28:42;3.70;99.90
8882;DHT22;4477;48.736;9.176;2022-12-07T13:31:16;3.70;99.90
8882;DHT22;4477;48.736;9.176;2022-12-07T13:33:46;3.90;99.90
8882;DHT22;4477;48.736;9.176;2022-12-07T13:36:20;3.80;99.90
8882;DHT22;4477;48.736;9.176;2022-12-07T13:38:56;3.80;99.90
8882;DHT22;4477;48.736;9.176;2022-12-07T13:41:24;3.90;99.90
8882;DHT22;4477;48.736;9.176;2022-12-07T13:43:55;3.90;99.90
8882;DHT22;4477;48.736;9.176;2022-12-07T13:46:32;3.90;99.90
8882;DHT22;4477;48.736;9.176;2022-12-07T13:49:00;3.80;99.90
8882;DHT22;4477;48.736;9.176;2022-12-07T13:51:28;3.90;99.90
8882;DHT22;4477;48.736;9.176;2022-12-07T13:53:59;3.90;99.90
8882;DHT22;4477;48.736;9.176;2022-12-07T13:56:34;4.10;99.90
8882;DHT22;4477;48.736;9.176;2022-12-07T13:59:02;4.00;99.90
8882;DHT22;4477;48.736;9.176;2022-12-07T14:01:31;4.00;99.90
8882;DHT22;4477;48.736;9.176;2022-12-07T14:04:24;3.90;99.90
8882;DHT22;4477;48.736;9.176;2022-12-07T14:06:54;3.90;99.90
8882;DHT22;4477;48.736;9.176;2022-12-07T14:09:22;3.90;99.90
8882;DHT22;4477;48.736;9.176;2022-12-07T14:11:50;3.80;99.90
8882;DHT22;4477;48.736;9.176;2022-12-07T14:14:20;3.90;99.90
8882;DHT22;4477;48.736;9.176;2022-12-07T14:17:01;3.90;99.90
8882;DHT22;4477;48.736;9.176;2022-12-07T14:19:48;3.80;99.90
8882;DHT22;4477;48.736;9.176;2022-12-07T14:22:23;3.60;99.90
8882;DHT22;4477;48.736;9.176;2022-12-07T14:24:50;3.70;99.90
8882;DHT22;4477;48.736;9.176;2022-12-07T14:27:19;3.60;99.90
8882;DHT22;4477;48.736;9.176;2022-12-07T14:29:46;3.60;99.90
8882;DHT22;4477;48.736;9.176;2022-12-07T14:32:22;3.50;99.90
8882;DHT22;4477;48.736;9.176;2022-12-07T14:34:58;3.50;99.90
8882;DHT22;4477;48.736;9.176;2022-12-07T14:37:25;3.40;99.90
8882;DHT22;4477;48.736;9.176;2022-12-07T14:39:52;3.40;99.90
8882;DHT22;4477;48.736;9.176;2022-12-07T14:42:20;3.20;99.90
8882;DHT22;4477;48.736;9.176;2022-12-07T14:44:47;3.20;99.90
8882;DHT22;4477;48.736;9.176;2022-12-07T14:47:14;3.10;99.90
8882;DHT22;4477;48.736;9.176;2022-12-07T14:49:42;3.10;99.90
8882;DHT22;4477;48.736;9.176;2022-12-07T14:52:14;3.10;99.90
8882;DHT22;4477;48.736;9.176;2022-12-07T14:54:42;3.20;99.90
8882;DHT22;4477;48.736;9.176;2022-12-07T14:57:10;3.10;99.90
8882;DHT22;4477;48.736;9.176;2022-12-07T14:59:37;3.00;99.90
8882;DHT22;4477;48.736;9.176;2022-12-07T15:02:05;2.90;99.90
8882;DHT22;4477;48.736;9.176;2022-12-07T15:04:32;2.90;99.90
8882;DHT22;4477;48.736;9.176;2022-12-07T15:07:02;2.80;99.90
8882;DHT22;4477;48.736;9.176;2022-12-07T15:09:30;2.80;99.90
8882;DHT22;4477;48.736;9.176;2022-12-07T15:11:56;2.80;99.90
8882;DHT22;4477;48.736;9.176;2022-12-07T15:14:23;2.70;99.90
8882;DHT22;4477;48.736;9.176;2022-12-07T15:16:50;2.70;99.90
8882;DHT22;4477;48.736;9.176;2022-12-07T15:19:19;2.80;99.90
8882;DHT22;4477;48.736;9.176;2022-12-07T15:21:48;2.70;99.90
8882;DHT22;4477;48.736;9.176;2022-12-07T15:24:16;2.60;99.90
8882;DHT22;4477;48.736;9.176;2022-12-07T15:26:43;2.50;99.90
8882;DHT22;4477;48.736;9.176;2022-12-07T15:29:10;2.60;99.90
8882;DHT22;4477;48.736;9.176;2022-12-07T15:31:37;2.50;99.90
8882;DHT22;4477;48.736;9.176;2022-12-07T15:34:04;2.50;99.90
8882;DHT22;4477;48.736;9.176;2022-12-07T15:36:33;2.40;99.90
8882;DHT22;4477;48.736;9.176;2022-12-07T15:39:00;2.30;99.90
8882;DHT22;4477;48.736;9.176;2022-12-07T15:41:29;2.30;99.90
8882;DHT22;4477;48.736;9.176;2022-12-07T15:43:55;2.30;99.90
8882;DHT22;4477;48.736;9.176;2022-12-07T15:46:40;2.30;99.90
8882;DHT22;4477;48.736;9.176;2022-12-07T15:51:36;2.30;99.90
8882;DHT22;4477;48.736;9.176;2022-12-07T15:54:03;2.30;99.90
8882;DHT22;4477;48.736;9.176;2022-12-07T15:56:31;2.30;99.90
8882;DHT22;4477;48.736;9.176;2022-12-07T15:58:58;2.30;99.90
8882;DHT22;4477;48.736;9.176;2022-12-07T16:01:25;2.30;99.90
8882;DHT22;4477;48.736;9.176;2022-12-07T16:03:52;2.20;99.90
8882;DHT22;4477;48.736;9.176;2022-12-07T16:06:22;2.20;99.90
8882;DHT22;4477;48.736;9.176;2022-12-07T16:08:49;2.20;99.90
8882;DHT22;4477;48.736;9.176;2022-12-07T16:11:16;2.10;99.90
8882;DHT22;4477;48.736;9.176;2022-12-07T16:13:44;2.10;99.90
8882;DHT22;4477;48.736;9.176;2022-12-07T16:16:13;2.10;99.90
8882;DHT22;4477;48.736;9.176;2022-12-07T16:18:42;2.00;99.90
8882;DHT22;4477;48.736;9.176;2022-12-07T16:21:10;1.90;99.90
8882;DHT22;4477;48.736;9.176;2022-12-07T16:23:37;1.90;99.90
8882;DHT22;4477;48.736;9.176;2022-12-07T16:26:05;1.80;99.90
8882;DHT22;4477;48.736;9.176;2022-12-07T16:28:33;1.80;99.90
8882;DHT22;4477;48.736;9.176;2022-12-07T16:31:05;1.80;99.90
8882;DHT22;4477;48.736;9.176;2022-12-07T16:33:34;1.60;99.90
8882;DHT22;4477;48.736;9.176;2022-12-07T16:36:01;1.60;99.90
8882;DHT22;4477;48.736;9.176;2022-12-07T16:38:28;1.50;99.90
8882;DHT22;4477;48.736;9.176;2022-12-07T16:40:55;1.50;99.90
8882;DHT22;4477;48.736;9.176;2022-12-07T16:43:22;1.50;99.90
8882;DHT22;4477;48.736;9.176;2022-12-07T16:45:49;1.50;99.90
8882;DHT22;4477;48.736;9.176;2022-12-07T16:48:18;1.50;99.90
8882;DHT22;4477;48.736;9.176;2022-12-07T16:50:45;1.40;99.90
8882;DHT22;4477;48.736;9.176;2022-12-07T16:53:14;1.30;99.90
8882;DHT22;4477;48.736;9.176;2022-12-07T16:55:43;1.20;99.90
8882;DHT22;4477;48.736;9.176;2022-12-07T16:58:11;1.10;99.90
8882;DHT22;4477;48.736;9.176;2022-12-07T17:00:39;1.10;99.90
8882;DHT22;4477;48.736;9.176;2022-12-07T17:03:06;1.00;99.90
8882;DHT22;4477;48.736;9.176;2022-12-07T17:05:37;1.00;99.90
8882;DHT22;4477;48.736;9.176;2022-12-07T17:08:04;0.90;99.90
8882;DHT22;4477;48.736;9.176;2022-12-07T17:10:33;0.80;99.90
8882;DHT22;4477;48.736;9.176;2022-12-07T17:13:01;0.60;99.90
8882;DHT22;4477;48.736;9.176;2022-12-07T17:15:28;0.70;99.90
8882;DHT22;4477;48.736;9.176;2022-12-07T17:17:55;0.60;99.90
8882;DHT22;4477;48.736;9.176;2022-12-07T17:20:24;0.70;99.90
8882;DHT22;4477;48.736;9.176;2022-12-07T17:22:53;0.70;99.90
8882;DHT22;4477;48.736;9.176;2022-12-07T17:25:20;0.70;99.90
8882;DHT22;4477;48.736;9.176;2022-12-07T17:27:47;0.80;99.90
8882;DHT22;4477;48.736;9.176;2022-12-07T17:30:14;0.90;99.90
8882;DHT22;4477;48.736;9.176;2022-12-07T17:32:41;0.90;99.90
8882;DHT22;4477;48.736;9.176;2022-12-07T17:35:09;0.90;99.90
8882;DHT22;4477;48.736;9.176;2022-12-07T17:37:36;1.00;99.90
8882;DHT22;4477;48.736;9.176;2022-12-07T17:40:06;1.00;99.90
8882;DHT22;4477;48.736;9.176;2022-12-07T17:42:33;1.10;99.90
8882;DHT22;4477;48.736;9.176;2022-12-07T17:45:03;1.10;99.90
8882;DHT22;4477;48.736;9.176;2022-12-07T17:47:30;1.10;99.90
8882;DHT22;4477;48.736;9.176;2022-12-07T17:49:57;1.10;99.90
8882;DHT22;4477;48.736;9.176;2022-12-07T17:52:23;1.10;99.90
8882;DHT22;4477;48.736;9.176;2022-12-07T17:55:13;1.20;99.90
8882;DHT22;4477;48.736;9.176;2022-12-07T18:02:49;1.30;99.90
8882;DHT22;4477;48.736;9.176;2022-12-07T18:05:16;1.30;99.90
8882;DHT22;4477;48.736;9.176;2022-12-07T18:07:43;1.40;99.90
8882;DHT22;4477;48.736;9.176;2022-12-07T18:10:11;1.40;99.90
8882;DHT22;4477;48.736;9.176;2022-12-07T18:12:39;1.30;99.90
8882;DHT22;4477;48.736;9.176;2022-12-07T18:15:06;1.30;99.90
8882;DHT22;4477;48.736;9.176;2022-12-07T18:17:33;1.30;99.90
8882;DHT22;4477;48.736;9.176;2022-12-07T18:20:00;1.30;99.90
8882;DHT22;4477;48.736;9.176;2022-12-07T18:22:27;1.30;99.90
8882;DHT22;4477;48.736;9.176;2022-12-07T18:24:59;1.30;99.90
8882;DHT22;4477;48.736;9.176;2022-12-07T18:43:16;1.20;99.90
8882;DHT22;4477;48.736;9.176;2022-12-07T18:45:44;1.20;99.90
8882;DHT22;4477;48.736;9.176;2022-12-07T18:48:13;1.20;99.90
8882;DHT22;4477;48.736;9.176;2022-12-07T18:50:39;1.20;99.90
8882;DHT22;4477;48.736;9.176;2022-12-07T18:53:06;1.10;99.90
8882;DHT22;4477;48.736;9.176;2022-12-07T18:55:33;1.10;99.90
8882;DHT22;4477;48.736;9.176;2022-12-07T18:58:00;1.00;99.90
8882;DHT22;4477;48.736;9.176;2022-12-07T19:00:31;1.00;99.90
8882;DHT22;4477;48.736;9.176;2022-12-07T19:03:00;1.00;99.90
8882;DHT22;4477;48.736;9.176;2022-12-07T19:08:02;1.00;99.90
8882;DHT22;4477;48.736;9.176;2022-12-07T19:10:29;1.00;99.90
8882;DHT22;4477;48.736;9.176;2022-12-07T19:12:56;1.10;99.90
8882;DHT22;4477;48.736;9.176;2022-12-07T19:15:23;1.00;99.90
8882;DHT22;4477;48.736;9.176;2022-12-07T19:17:52;1.00;99.90
8882;DHT22;4477;48.736;9.176;2022-12-07T19:20:19;1.00;99.90
8882;DHT22;4477;48.736;9.176;2022-12-07T20:51:51;0.90;99.90
8882;DHT22;4477;48.736;9.176;2022-12-07T21:02:05;0.90;99.90
8882;DHT22;4477;48.736;9.176;2022-12-07T21:07:08;0.90;99.90
8882;DHT22;4477;48.736;9.176;2022-12-07T21:09:35;0.90;99.90
8882;DHT22;4477;48.736;9.176;2022-12-07T21:12:02;0.90;99.90
8882;DHT22;4477;48.736;9.176;2022-12-07T21:14:30;0.90;99.90
8882;DHT22;4477;48.736;9.176;2022-12-07T21:16:56;0.90;99.90
8882;DHT22;4477;48.736;9.176;2022-12-07T21:21:54;0.70;99.90
8882;DHT22;4477;48.736;9.176;2022-12-07T21:24:22;0.70;99.90
8882;DHT22;4477;48.736;9.176;2022-12-07T21:26:49;0.60;99.90
8882;DHT22;4477;48.736;9.176;2022-12-07T21:29:16;0.60;99.90
8882;DHT22;4477;48.736;9.176;2022-12-07T21:31:43;0.60;99.90
8882;DHT22;4477;48.736;9.176;2022-12-07T21:34:09;0.60;99.90
8882;DHT22;4477;48.736;9.176;2022-12-07T21:36:36;0.60;99.90
8882;DHT22;4477;48.736;9.176;2022-12-07T21:39:05;0.50;99.90
8882;DHT22;4477;48.736;9.176;2022-12-07T21:41:34;0.50;99.90
8882;DHT22;4477;48.736;9.176;2022-12-07T21:44:04;0.50;99.90
8882;DHT22;4477;48.736;9.176;2022-12-07T21:46:31;0.50;99.90
8882;DHT22;4477;48.736;9.176;2022-12-07T21:49:00;0.50;99.90
8882;DHT22;4477;48.736;9.176;2022-12-07T21:51:28;0.50;99.90
8882;DHT22;4477;48.736;9.176;2022-12-07T21:53:56;0.50;99.90
8882;DHT22;4477;48.736;9.176;2022-12-07T21:56:25;0.50;99.90
8882;DHT22;4477;48.736;9.176;2022-12-07T21:58:58;0.60;99.90
8882;DHT22;4477;48.736;9.176;2022-12-07T22:01:28;0.60;99.90
8882;DHT22;4477;48.736;9.176;2022-12-07T22:03:56;0.50;99.90
8882;DHT22;4477;48.736;9.176;2022-12-07T22:06:25;0.40;99.90
8882;DHT22;4477;48.736;9.176;2022-12-07T22:08:53;0.20;99.90
8882;DHT22;4477;48.736;9.176;2022-12-07T22:11:22;0.00;99.90
8882;DHT22;4477;48.736;9.176;2022-12-07T22:13:49;-0.20;99.90
8882;DHT22;4477;48.736;9.176;2022-12-07T22:16:35;-0.20;99.90
8882;DHT22;4477;48.736;9.176;2022-12-07T22:19:02;-0.10;99.90
8882;DHT22;4477;48.736;9.176;2022-12-07T22:21:30;-0.10;99.90
8882;DHT22;4477;48.736;9.176;2022-12-07T22:23:57;0.00;99.90
8882;DHT22;4477;48.736;9.176;2022-12-07T22:26:24;0.00;99.90
8882;DHT22;4477;48.736;9.176;2022-12-07T22:28:52;0.00;99.90
8882;DHT22;4477;48.736;9.176;2022-12-07T22:31:19;0.10;99.90
8882;DHT22;4477;48.736;9.176;2022-12-07T22:33:48;0.10;99.90